Time;durP1;ratioP1;P1;durP2;ratioP2;P2;SDS_P1;SDS_P2;PMS_P1;PMS_P2;Temp;Humidity;BMP_temperature;BMP_pressure;BME280_temperature;BME280_humidity;BME280_pressure;Samples;Min_cycle;Max_cycle;Signal;HPM_P1;HPM_P2
2023/10/31 00:02:03;;;;;;;13.95;3.88;;;;;;;9.45;100.00;99713.84;6081589;19;20644;-70
2023/10/31 00:04:11;;;;;;;10.57;3.22;;;;;;;9.43;100.00;99718.34;6079866;19;20109;-69
2023/10/31 00:06:19;;;;;;;8.98;3.42;;;;;;;9.47;100.00;99709.34;6079658;19;20014;-69
2023/10/31 00:08:24;;;;;;;8.80;3.42;;;;;;;9.44;100.00;99713.00;6081732;19;20527;-68
2023/10/31 00:10:29;;;;;;;12.05;4.50;;;;;;;9.42;100.00;99709.59;6078887;19;20476;-69
2023/10/31 00:12:35;;;;;;;7.50;3.47;;;;;;;9.41;100.00;99709.69;6077381;19;20010;-70
2023/10/31 00:14:43;;;;;;;8.82;3.65;;;;;;;9.45;100.00;99713.84;6078789;19;20014;-69
2023/10/31 00:16:48;;;;;;;15.90;4.30;;;;;;;9.45;100.00;99709.47;6079461;19;20824;-70
2023/10/31 00:18:53;;;;;;;7.45;3.53;;;;;;;9.41;100.00;99707.09;6078142;19;19998;-68
2023/10/31 00:20:59;;;;;;;6.97;3.45;;;;;;;9.39;100.00;99706.31;6079772;19;19998;-70
2023/10/31 00:23:06;;;;;;;8.68;3.58;;;;;;;9.39;100.00;99704.53;6078278;19;20018;-68
2023/10/31 00:25:11;;;;;;;13.05;4.20;;;;;;;9.43;100.00;99702.59;6080635;19;20006;-69
2023/10/31 00:27:19;;;;;;;8.15;3.75;;;;;;;9.47;100.00;99713.75;6082661;19;20070;-70
2023/10/31 00:29:21;;;;;;;11.45;4.18;;;;;;;9.45;100.00;99711.22;6078963;19;20007;-71
2023/10/31 00:31:26;;;;;;;10.10;3.97;;;;;;;9.48;100.00;99708.44;6078490;19;20011;-71
2023/10/31 00:33:31;;;;;;;17.25;5.03;;;;;;;9.54;100.00;99710.72;6077069;19;20013;-70
2023/10/31 00:35:37;;;;;;;11.48;3.65;;;;;;;9.53;100.00;99714.28;6080166;19;20074;-71
2023/10/31 00:37:42;;;;;;;9.50;3.30;;;;;;;9.54;100.00;99717.75;6081170;19;20467;-70
2023/10/31 00:39:52;;;;;;;10.65;4.53;;;;;;;9.62;100.00;99720.81;6070330;19;20002;-71
2023/10/31 00:41:57;;;;;;;8.82;4.20;;;;;;;9.63;100.00;99723.31;6077657;19;20467;-70
2023/10/31 00:44:03;;;;;;;17.55;4.78;;;;;;;9.70;100.00;99729.09;6076684;19;20010;-70
2023/10/31 00:46:08;;;;;;;10.40;4.53;;;;;;;9.64;100.00;99727.66;6080068;19;20011;-69
2023/10/31 00:48:13;;;;;;;12.98;5.20;;;;;;;9.66;100.00;99728.44;6076536;19;20022;-69
2023/10/31 00:50:19;;;;;;;11.32;4.32;;;;;;;9.70;100.00;99728.25;6075828;19;20093;-71
2023/10/31 00:52:24;;;;;;;9.98;4.00;;;;;;;9.64;100.00;99725.03;6076261;19;20404;-69
2023/10/31 00:54:29;;;;;;;16.08;5.75;;;;;;;9.64;100.00;99726.81;6076776;19;20003;-70
2023/10/31 00:56:34;;;;;;;14.48;4.38;;;;;;;9.64;100.00;99735.53;6077088;19;20018;-70
2023/10/31 00:58:39;;;;;;;15.05;5.53;;;;;;;9.64;100.00;99738.16;6077895;19;20006;-69
2023/10/31 01:00:44;;;;;;;10.02;4.07;;;;;;;9.63;100.00;99740.84;6077916;19;20006;-68
2023/10/31 01:02:49;;;;;;;14.25;4.43;;;;;;;9.70;100.00;99741.38;6077138;19;20422;-70
2023/10/31 01:04:54;;;;;;;13.68;4.50;;;;;;;9.80;100.00;99745.19;6076707;19;20017;-70
2023/10/31 01:06:59;;;;;;;14.15;4.68;;;;;;;9.79;100.00;99743.47;6077669;19;20009;-70
2023/10/31 01:09:07;;;;;;;9.65;4.65;;;;;;;9.74;100.00;99745.50;6078097;19;20019;-70
2023/10/31 01:11:12;;;;;;;14.80;4.57;;;;;;;9.78;100.00;99747.06;6077528;19;20010;-68
2023/10/31 01:13:20;;;;;;;13.48;5.38;;;;;;;9.77;100.00;99756.72;6075653;19;20450;-70
2023/10/31 01:15:25;;;;;;;15.45;4.90;;;;;;;9.80;100.00;99753.91;6077139;19;20023;-70
2023/10/31 01:17:30;;;;;;;16.70;5.55;;;;;;;9.77;100.00;99761.09;6078533;19;20006;-70
2023/10/31 01:19:33;;;;;;;18.10;5.90;;;;;;;9.73;100.00;99760.41;6077948;19;20403;-70
2023/10/31 01:21:38;;;;;;;;;;;;;;;9.75;100.00;99771.69;6076057;19;20454;-70
2023/10/31 01:23:43;;;;;;;14.07;6.07;;;;;;;9.73;100.00;99762.19;6076595;19;19966;-71
2023/10/31 01:25:48;;;;;;;18.75;6.18;;;;;;;9.77;100.00;99767.19;6077363;19;20371;-69
2023/10/31 01:27:53;;;;;;;21.60;6.75;;;;;;;9.73;100.00;99776.16;6070814;19;20459;-70
2023/10/31 01:30:04;;;;;;;12.02;5.57;;;;;;;9.72;100.00;99771.00;6078632;19;20006;-70
2023/10/31 01:32:08;;;;;;;13.80;6.03;;;;;;;9.77;100.00;99772.44;6076361;19;20883;-70
2023/10/31 01:34:25;;;;;;;16.38;7.25;;;;;;;9.76;100.00;99783.84;6078413;19;20309;-70
2023/10/31 01:36:30;;;;;;;12.40;5.85;;;;;;;9.79;100.00;99777.59;6078374;19;20019;-70
2023/10/31 01:38:35;;;;;;;13.48;5.75;;;;;;;9.74;100.00;99777.00;6077472;19;20099;-69
2023/10/31 01:40:40;;;;;;;16.10;6.40;;;;;;;9.78;100.00;99778.53;6075092;19;20014;-70
2023/10/31 01:42:45;;;;;;;12.65;6.00;;;;;;;9.75;100.00;99786.56;6078804;19;20034;-70
2023/10/31 01:44:48;;;;;;;14.63;6.38;;;;;;;9.71;100.00;99785.03;6076392;19;20011;-69
2023/10/31 01:46:56;;;;;;;11.90;5.28;;;;;;;9.74;100.00;99785.72;6076656;19;20500;-69
2023/10/31 01:49:01;;;;;;;17.70;5.97;;;;;;;9.81;100.00;99788.84;6077330;19;20002;-70
2023/10/31 01:51:07;;;;;;;8.40;4.38;;;;;;;9.72;100.00;99799.88;6074870;19;20002;-71
2023/10/31 01:53:12;;;;;;;10.65;4.32;;;;;;;9.68;100.00;99796.53;6071537;19;20038;-70
2023/10/31 01:55:19;;;;;;;8.35;3.97;;;;;;;9.71;100.00;99801.63;6075878;19;20847;-71
2023/10/31 01:57:24;;;;;;;11.85;4.10;;;;;;;9.67;100.00;99807.97;6073953;19;20014;-71
2023/10/31 01:59:30;;;;;;;10.75;3.85;;;;;;;9.68;100.00;99801.78;6075088;19;20340;-71
2023/10/31 02:01:35;;;;;;;12.38;3.70;;;;;;;9.70;100.00;99804.34;6074098;19;20396;-71
2023/10/31 02:03:43;;;;;;;8.68;3.72;;;;;;;9.73;100.00;99818.13;6074687;19;20007;-70
2023/10/31 02:05:53;;;;;;;11.35;3.75;;;;;;;9.76;100.00;99814.50;6075950;19;20002;-71
2023/10/31 02:07:58;;;;;;;17.33;4.80;;;;;;;9.77;100.00;99821.41;6070108;19;20006;-70
2023/10/31 02:10:03;;;;;;;14.35;4.85;;;;;;;9.73;100.00;99823.38;6074456;19;20007;-70
2023/10/31 02:12:09;;;;;;;16.15;6.05;;;;;;;9.81;100.00;99820.34;6072374;19;20098;-70
2023/10/31 02:14:14;;;;;;;16.73;7.03;;;;;;;9.81;100.00;99817.72;6068647;19;20070;-70
2023/10/31 02:16:25;;;;;;;17.52;6.18;;;;;;;9.80;100.00;99818.66;6072639;19;20037;-72
2023/10/31 02:18:32;;;;;;;14.85;6.45;;;;;;;9.76;100.00;99822.38;6077249;19;20023;-72
2023/10/31 02:20:40;;;;;;;20.65;6.53;;;;;;;9.82;100.00;99820.28;6075617;19;20014;-72
2023/10/31 02:22:48;;;;;;;13.45;5.43;;;;;;;9.83;100.00;99813.25;6072080;19;20010;-72
2023/10/31 02:24:53;;;;;;;16.58;5.47;;;;;;;9.88;100.00;99816.47;6074159;19;20018;-70
2023/10/31 02:26:58;;;;;;;12.00;4.43;;;;;;;9.81;100.00;99820.34;6073023;19;20380;-70
2023/10/31 02:29:04;;;;;;;10.88;4.65;;;;;;;9.86;100.00;99819.16;6075706;19;20003;-70
2023/10/31 02:31:09;;;;;;;10.15;3.53;;;;;;;9.90;100.00;99827.75;6076354;19;20194;-70
2023/10/31 02:33:16;;;;;;;9.32;4.28;;;;;;;9.91;100.00;99820.69;6074216;19;20003;-72
2023/10/31 02:35:22;;;;;;;13.95;4.05;;;;;;;9.88;100.00;99826.97;6076327;19;20006;-71
2023/10/31 02:37:24;;;;;;;10.25;4.47;;;;;;;9.86;100.00;99840.16;6073105;19;20002;-71
2023/10/31 02:39:32;;;;;;;9.02;4.03;;;;;;;9.91;100.00;99834.66;6073999;19;20010;-70
2023/10/31 02:41:37;;;;;;;9.20;3.38;;;;;;;9.89;100.00;99834.75;6074863;19;20487;-74
2023/10/31 02:43:43;;;;;;;10.77;3.28;;;;;;;9.84;100.00;99843.78;6075689;19;20011;-71
2023/10/31 02:45:46;;;;;;;5.25;2.78;;;;;;;9.78;100.00;99838.88;6072326;19;20011;-71
2023/10/31 02:47:50;;;;;;;6.00;2.30;;;;;;;9.77;100.00;99839.78;6073610;19;20593;-70
2023/10/31 02:49:56;;;;;;;4.03;2.08;;;;;;;9.75;100.00;99841.66;6076403;19;20023;-71
2023/10/31 02:52:01;;;;;;;6.53;1.95;;;;;;;9.75;100.00;99846.91;6070364;19;21212;-70
2023/10/31 02:54:07;;;;;;;5.35;2.67;;;;;;;9.79;100.00;99844.03;6077940;19;20379;-70
2023/10/31 02:56:11;;;;;;;4.75;2.22;;;;;;;9.76;100.00;99843.34;6082276;19;20067;-70
2023/10/31 02:58:19;;;;;;;7.47;2.15;;;;;;;9.73;100.00;99839.13;6078926;19;19999;-71
2023/10/31 03:00:25;;;;;;;7.85;3.65;;;;;;;9.74;100.00;99839.94;6082164;19;20745;-71
2023/10/31 03:02:32;;;;;;;16.20;4.32;;;;;;;9.77;100.00;99851.16;6077819;19;20032;-70
2023/10/31 03:04:37;;;;;;;11.52;4.20;;;;;;;9.73;100.00;99843.53;6079658;19;20561;-70
2023/10/31 03:06:42;;;;;;;8.98;3.35;;;;;;;9.70;100.00;99839.28;6080021;19;20090;-70
2023/10/31 03:08:46;;;;;;;7.22;3.17;;;;;;;9.70;100.00;99844.53;6081880;19;20070;-71
2023/10/31 03:10:52;;;;;;;6.75;2.38;;;;;;;9.67;100.00;99844.69;6079872;19;20408;-70
2023/10/31 03:13:00;;;;;;;3.05;2.10;;;;;;;9.62;100.00;99842.31;6077346;19;20375;-70
2023/10/31 03:15:06;;;;;;;5.85;2.75;;;;;;;9.55;100.00;99850.56;6081837;19;20388;-69
2023/10/31 03:17:11;;;;;;;5.55;2.20;;;;;;;9.51;100.00;99851.69;6077560;19;20762;-70
2023/10/31 03:19:16;;;;;;;4.82;2.55;;;;;;;9.60;100.00;99853.81;6079846;19;20421;-69
2023/10/31 03:21:21;;;;;;;5.22;2.72;;;;;;;9.51;100.00;99859.53;6080821;19;20037;-69
2023/10/31 03:23:26;;;;;;;5.53;2.65;;;;;;;9.51;100.00;99865.63;6079488;19;20051;-69
2023/10/31 03:25:31;;;;;;;7.72;2.60;;;;;;;9.47;100.00;99873.72;6078526;19;20086;-71
2023/10/31 03:27:36;;;;;;;7.43;2.70;;;;;;;9.43;100.00;99873.06;6080768;19;20343;-70
2023/10/31 03:29:43;;;;;;;5.75;2.53;;;;;;;9.42;100.00;99877.41;6080036;19;20002;-69
2023/10/31 03:31:48;;;;;;;5.82;2.55;;;;;;;9.39;100.00;99879.38;6079022;19;20024;-70
2023/10/31 03:33:54;;;;;;;4.53;2.40;;;;;;;9.42;100.00;99876.56;6079646;19;20034;-70
2023/10/31 03:35:59;;;;;;;4.20;2.30;;;;;;;9.42;100.00;99879.19;6077673;19;20006;-70
2023/10/31 03:38:04;;;;;;;2.55;1.90;;;;;;;9.38;100.00;99878.53;6075526;19;20014;-70
2023/10/31 03:40:10;;;;;;;4.15;2.80;;;;;;;9.39;100.00;99879.38;6078701;19;20031;-71
2023/10/31 03:42:16;;;;;;;6.40;4.22;;;;;;;9.42;100.00;99866.09;6075443;19;20355;-69
2023/10/31 03:44:21;;;;;;;7.18;2.65;;;;;;;9.43;100.00;99868.66;6078451;19;20130;-69
2023/10/31 03:46:28;;;;;;;4.70;2.80;;;;;;;9.40;100.00;99868.81;6079918;19;20030;-69
2023/10/31 03:48:34;;;;;;;10.65;2.60;;;;;;;9.42;100.00;99869.56;6076345;19;20034;-69
2023/10/31 03:50:37;;;;;;;2.35;1.60;;;;;;;9.43;100.00;99878.28;6080055;19;20010;-69
2023/10/31 03:52:42;;;;;;;2.50;1.75;;;;;;;9.40;100.00;99873.19;6075551;19;20403;-70
2023/10/31 03:54:50;;;;;;;1.90;1.50;;;;;;;9.37;100.00;99874.22;6079857;19;20027;-71
2023/10/31 03:56:55;;;;;;;3.78;2.00;;;;;;;9.37;100.00;99874.22;6079384;19;20620;-71
2023/10/31 03:59:00;;;;;;;8.60;1.60;;;;;;;9.36;100.00;99879.53;6078576;19;20007;-70
2023/10/31 04:01:05;;;;;;;6.65;1.40;;;;;;;9.41;100.00;99878.34;6078820;19;20010;-70
2023/10/31 04:03:13;;;;;;;3.75;1.75;;;;;;;9.33;100.00;99882.31;6079474;19;20079;-69
2023/10/31 04:05:20;;;;;;;3.80;1.30;;;;;;;9.32;100.00;99880.59;6077362;19;20006;-71
2023/10/31 04:07:22;;;;;;;3.97;1.20;;;;;;;9.30;100.00;99882.47;6076869;19;20006;-69
2023/10/31 04:09:27;;;;;;;2.20;1.15;;;;;;;9.29;100.00;99881.59;6078590;19;20564;-70
2023/10/31 04:11:32;;;;;;;2.38;1.10;;;;;;;9.27;100.00;99887.84;6078888;19;20453;-70
2023/10/31 04:13:37;;;;;;;4.25;1.42;;;;;;;9.26;100.00;99896.63;6077320;19;20495;-70
2023/10/31 04:15:40;;;;;;;3.70;1.98;;;;;;;9.25;100.00;99893.19;6077472;19;20017;-71
2023/10/31 04:17:47;;;;;;;3.20;1.27;;;;;;;9.26;100.00;99900.09;6076915;19;20634;-71
2023/10/31 04:19:55;;;;;;;1.80;1.33;;;;;;;9.32;100.00;99912.06;6079949;19;20434;-70
2023/10/31 04:22:00;;;;;;;0.90;0.90;;;;;;;9.27;100.00;99904.44;6078002;19;20010;-71
2023/10/31 04:24:07;;;;;;;2.78;1.23;;;;;;;9.25;100.00;99911.53;6071700;19;20026;-69
2023/10/31 04:26:15;;;;;;;1.73;1.10;;;;;;;9.22;100.00;99914.31;6078361;19;20037;-71
2023/10/31 04:28:21;;;;;;;3.20;1.50;;;;;;;9.22;100.00;99912.53;6080394;19;20593;-70
2023/10/31 04:30:26;;;;;;;1.77;1.15;;;;;;;9.16;100.00;99918.09;6075334;19;20024;-70
2023/10/31 04:32:31;;;;;;;3.38;1.33;;;;;;;9.19;100.00;99924.94;6076153;19;20084;-70
2023/10/31 04:34:36;;;;;;;3.33;1.35;;;;;;;9.15;100.00;99926.84;6076309;19;20143;-70
2023/10/31 04:36:43;;;;;;;1.25;1.00;;;;;;;9.19;100.00;99933.66;6074976;19;20010;-70
2023/10/31 04:38:49;;;;;;;0.85;0.82;;;;;;;9.18;100.00;99925.84;6076263;19;20006;-70
2023/10/31 04:40:56;;;;;;;3.17;1.08;;;;;;;9.16;100.00;99923.31;6079908;19;20471;-70
2023/10/31 04:43:01;;;;;;;5.65;2.00;;;;;;;9.16;100.00;99931.19;6079501;19;20006;-72
2023/10/31 04:45:08;;;;;;;4.63;1.38;;;;;;;9.14;100.00;99924.31;6077883;19;20012;-70
2023/10/31 04:47:13;;;;;;;3.45;1.20;;;;;;;9.07;100.00;99926.38;6078701;19;20400;-69
2023/10/31 04:49:18;;;;;;;1.45;1.27;;;;;;;9.04;100.00;99926.53;6072616;19;20017;-71
2023/10/31 04:51:23;;;;;;;2.70;1.90;;;;;;;9.07;100.00;99926.38;6076701;19;20062;-70
2023/10/31 04:53:32;;;;;;;1.00;1.00;;;;;;;9.01;100.00;99929.31;6076486;19;20006;-70
2023/10/31 04:55:37;;;;;;;6.07;1.58;;;;;;;8.98;100.00;99940.78;6076657;19;20003;-70
2023/10/31 04:57:42;;;;;;;3.88;1.58;;;;;;;8.94;100.00;99948.88;6074904;19;20011;-70
2023/10/31 04:59:48;;;;;;;2.60;1.40;;;;;;;8.95;100.00;99945.31;6076021;19;20037;-70
2023/10/31 05:01:55;;;;;;;3.13;1.58;;;;;;;8.92;100.00;99946.31;6077288;19;20037;-70
2023/10/31 05:03:58;;;;;;;7.40;2.03;;;;;;;8.92;100.00;99962.03;6077416;19;20499;-69
2023/10/31 05:06:21;;;;;;;9.30;2.40;;;;;;;8.96;100.00;99962.75;5988587;19;2004942;-70
2023/10/31 05:08:26;;;;;;;7.55;2.75;;;;;;;8.94;100.00;99962.81;6074510;19;20007;-70
2023/10/31 05:10:33;;;;;;;15.07;3.30;;;;;;;8.90;100.00;99969.13;6078039;19;20089;-70
2023/10/31 05:12:39;;;;;;;13.35;3.20;;;;;;;8.90;100.00;99968.25;6076853;19;20022;-70
2023/10/31 05:14:44;;;;;;;11.10;4.05;;;;;;;8.93;100.00;99970.75;6075354;19;20014;-70
2023/10/31 05:16:49;;;;;;;8.15;4.07;;;;;;;8.92;100.00;99971.66;6077957;19;20019;-69
2023/10/31 05:18:54;;;;;;;11.05;4.07;;;;;;;8.96;100.00;99970.63;6075296;19;20102;-70
2023/10/31 05:20:59;;;;;;;8.32;3.10;;;;;;;8.99;100.00;99975.69;6075030;19;20122;-69
2023/10/31 05:23:07;;;;;;;16.85;4.20;;;;;;;8.98;100.00;99974.00;6077351;19;20465;-70
2023/10/31 05:25:12;;;;;;;12.98;3.88;;;;;;;9.00;100.00;99969.53;6078725;19;20025;-69
2023/10/31 05:27:21;;;;;;;12.68;3.70;;;;;;;9.02;100.00;99979.00;6078153;19;20030;-70
2023/10/31 05:29:25;;;;;;;14.85;4.00;;;;;;;9.00;100.00;99985.25;6076182;19;20010;-69
2023/10/31 05:31:30;;;;;;;12.77;4.75;;;;;;;8.99;100.00;99988.81;6074831;19;20290;-69
2023/10/31 05:33:35;;;;;;;12.75;4.90;;;;;;;8.99;100.00;99987.03;6075024;19;20007;-69
2023/10/31 05:35:40;;;;;;;13.18;3.85;;;;;;;9.02;100.00;99983.41;6073780;19;20508;-70
2023/10/31 05:37:43;;;;;;;5.65;3.15;;;;;;;9.03;100.00;99990.38;6076735;19;20066;-70
2023/10/31 05:39:48;;;;;;;11.00;3.70;;;;;;;9.03;100.00;99990.38;6075731;19;20014;-70
2023/10/31 05:41:53;;;;;;;12.75;3.33;;;;;;;9.05;100.00;99987.66;6079067;19;20012;-70
2023/10/31 05:44:01;;;;;;;10.55;3.05;;;;;;;9.04;100.00;99989.44;6078308;19;20634;-70
2023/10/31 05:46:04;;;;;;;7.00;2.30;;;;;;;8.98;100.00;99984.50;6078346;19;20487;-70
2023/10/31 05:48:09;;;;;;;7.75;2.95;;;;;;;8.98;100.00;99987.13;6078053;19;20043;-70
2023/10/31 05:50:14;;;;;;;14.65;2.42;;;;;;;9.00;100.00;99985.25;6076182;19;20347;-70
2023/10/31 05:52:21;;;;;;;3.33;1.98;;;;;;;9.01;100.00;99986.97;6069364;19;20447;-70
2023/10/31 05:54:26;;;;;;;3.00;1.80;;;;;;;9.08;100.00;99988.34;6078902;19;20013;-70
2023/10/31 05:56:31;;;;;;;7.07;1.80;;;;;;;9.07;100.00;99986.66;6078141;19;20035;-70
2023/10/31 05:58:34;;;;;;;5.13;1.90;;;;;;;9.15;100.00;99996.78;6077327;19;20010;-72
2023/10/31 06:00:42;;;;;;;6.18;1.90;;;;;;;9.18;100.00;100000.09;6078313;19;20023;-71
2023/10/31 06:02:50;;;;;;;3.95;1.95;;;;;;;9.16;100.00;99999.34;6076681;19;20082;-72
2023/10/31 06:04:55;;;;;;;4.75;2.20;;;;;;;9.15;100.00;100000.25;6076735;19;20086;-72
2023/10/31 06:07:00;;;;;;;4.28;2.08;;;;;;;9.15;100.00;100002.03;6075102;19;20313;-71
2023/10/31 06:09:06;;;;;;;4.65;2.45;;;;;;;9.18;100.00;100000.09;6074759;19;20058;-71
2023/10/31 06:11:12;;;;;;;3.92;2.38;;;;;;;9.20;100.00;99994.78;6073436;19;20021;-71
2023/10/31 06:13:18;;;;;;;8.40;2.25;;;;;;;9.19;100.00;100004.44;6072931;19;20581;-71
2023/10/31 06:15:23;;;;;;;8.15;2.42;;;;;;;9.14;100.00;99993.31;6074621;19;20016;-71
2023/10/31 06:17:33;;;;;;;3.28;2.00;;;;;;;9.10;100.00;100006.63;6074066;19;20491;-71
2023/10/31 06:19:44;;;;;;;8.18;2.40;;;;;;;9.08;100.00;100005.84;6069831;19;20011;-72
2023/10/31 06:21:50;;;;;;;6.75;1.98;;;;;;;9.05;100.00;100006.84;6073499;19;20010;-71
2023/10/31 06:23:55;;;;;;;5.75;2.50;;;;;;;9.05;100.00;100014.72;6075487;19;20019;-71
2023/10/31 06:26:00;;;;;;;6.95;2.58;;;;;;;8.97;100.00;100006.34;6072917;19;20011;-71
2023/10/31 06:28:07;;;;;;;7.05;2.80;;;;;;;8.99;100.00;100023.72;6077269;19;20509;-70
2023/10/31 06:30:13;;;;;;;7.95;3.00;;;;;;;8.95;100.00;100023.91;6082049;19;20090;-70
2023/10/31 06:32:33;;;;;;;6.97;3.03;;;;;;;8.93;100.00;100025.78;5981986;19;2004560;-69
2023/10/31 06:34:38;;;;;;;6.32;3.50;;;;;;;8.90;100.00;100031.16;6078280;19;20010;-70
2023/10/31 06:36:41;;;;;;;4.93;2.70;;;;;;;8.87;100.00;100031.28;6080411;19;20414;-70
2023/10/31 06:38:46;;;;;;;9.75;3.22;;;;;;;8.82;100.00;100028.91;6077097;19;20010;-71
2023/10/31 06:40:50;;;;;;;5.32;2.80;;;;;;;8.79;100.00;100036.88;6078599;19;20814;-70
2023/10/31 06:42:56;;;;;;;4.18;2.88;;;;;;;8.78;100.00;100030.81;6078476;19;20006;-71
2023/10/31 06:45:00;;;;;;;4.93;2.65;;;;;;;8.76;100.00;100045.72;6081415;19;20027;-71
2023/10/31 06:47:06;;;;;;;9.68;3.15;;;;;;;8.72;100.00;100038.09;6082308;19;20122;-70
2023/10/31 06:49:14;;;;;;;4.93;2.53;;;;;;;8.72;100.00;100038.94;6080765;19;20018;-70
2023/10/31 06:51:22;;;;;;;6.60;2.72;;;;;;;8.74;100.00;100047.59;6077602;19;20034;-72
2023/10/31 06:53:26;;;;;;;7.10;2.38;;;;;;;8.75;100.00;100056.28;6075487;19;20011;-71
2023/10/31 06:55:31;;;;;;;10.07;3.55;;;;;;;8.84;100.00;100062.88;6079780;19;20534;-70
2023/10/31 06:57:37;;;;;;;7.88;4.07;;;;;;;8.89;100.00;100069.59;6077788;19;20309;-72
2023/10/31 06:59:39;;;;;;;13.38;3.72;;;;;;;8.92;100.00;100071.22;6077992;19;20017;-72
2023/10/31 07:01:46;;;;;;;7.72;2.88;;;;;;;9.05;100.00;100074.97;6081492;19;20021;-72
2023/10/31 07:03:51;;;;;;;5.15;2.55;;;;;;;9.16;100.00;100072.75;6082666;19;20003;-70
2023/10/31 07:05:59;;;;;;;11.07;3.47;;;;;;;9.25;100.00;100065.34;6080152;19;20398;-71
2023/10/31 07:08:07;;;;;;;7.55;3.55;;;;;;;9.32;100.00;100067.63;6081377;19;20239;-70
2023/10/31 07:10:12;;;;;;;12.02;3.80;;;;;;;9.39;100.00;100070.78;6084431;19;20387;-72
2023/10/31 07:12:18;;;;;;;9.13;3.40;;;;;;;9.47;100.00;100068.63;6081671;19;20006;-71
2023/10/31 07:14:23;;;;;;;10.25;3.35;;;;;;;9.53;100.00;100077.97;6082739;19;20002;-71
2023/10/31 07:16:28;;;;;;;6.15;3.22;;;;;;;9.54;100.00;100075.28;6081652;19;20060;-71
2023/10/31 07:18:33;;;;;;;12.63;4.15;;;;;;;9.54;100.00;100080.53;6078817;19;20010;-71
2023/10/31 07:20:38;;;;;;;13.77;4.53;;;;;;;9.53;100.00;100075.34;6082252;19;20026;-72
2023/10/31 07:22:46;;;;;;;11.68;4.40;;;;;;;9.53;100.00;100083.22;6081782;19;20067;-71
2023/10/31 07:24:51;;;;;;;9.30;4.00;;;;;;;9.52;100.00;100085.00;6080526;19;20028;-72
2023/10/31 07:26:56;;;;;;;12.45;4.35;;;;;;;9.52;100.00;100090.25;6082746;19;20630;-72
2023/10/31 07:29:01;;;;;;;12.05;4.03;;;;;;;9.56;100.00;100097.06;6080518;19;20014;-71
2023/10/31 07:31:07;;;;;;;13.75;3.88;;;;;;;9.60;100.00;100100.38;6076400;19;20355;-73
2023/10/31 07:33:13;;;;;;;13.95;4.22;;;;;;;9.62;100.00;100102.00;6079061;19;20010;-71
2023/10/31 07:35:20;;;;;;;11.93;4.35;;;;;;;9.65;100.00;100099.22;6077461;19;20582;-71
2023/10/31 07:37:26;;;;;;;10.30;3.90;;;;;;;9.69;100.00;100097.31;6081645;19;20031;-71
2023/10/31 07:39:33;;;;;;;15.13;4.05;;;;;;;9.73;100.00;100100.63;6076895;19;20006;-71
2023/10/31 07:41:39;;;;;;;17.88;4.90;;;;;;;9.77;100.00;100103.03;6078763;19;20045;-71
2023/10/31 07:43:44;;;;;;;10.40;5.22;;;;;;;9.75;100.00;100104.88;6076085;19;20023;-71
2023/10/31 07:45:49;;;;;;;12.45;4.88;;;;;;;9.78;100.00;100098.63;6076608;19;20010;-71
2023/10/31 07:47:54;;;;;;;11.02;4.65;;;;;;;9.78;100.00;100093.38;6075520;19;20465;-72
2023/10/31 07:49:59;;;;;;;9.95;4.57;;;;;;;9.79;100.00;100095.06;6076283;19;20012;-72
2023/10/31 07:52:05;;;;;;;9.00;4.75;;;;;;;9.80;100.00;100095.00;6073419;19;20010;-72
2023/10/31 07:54:10;;;;;;;11.77;5.20;;;;;;;9.81;100.00;100101.94;6069967;19;20466;-72
2023/10/31 07:56:23;;;;;;;14.98;5.47;;;;;;;9.80;100.00;100102.88;6077316;19;20094;-72
2023/10/31 07:58:28;;;;;;;17.42;5.20;;;;;;;9.76;100.00;100103.09;6074932;19;20019;-70
2023/10/31 08:00:35;;;;;;;19.27;5.88;;;;;;;9.76;100.00;100100.47;6073724;19;20251;-74
2023/10/31 08:02:41;;;;;;;14.00;5.80;;;;;;;9.72;100.00;100109.44;6076954;19;20034;-72
2023/10/31 08:04:46;;;;;;;9.95;5.30;;;;;;;10.04;100.00;100113.09;6075175;19;20006;-70
2023/10/31 08:06:51;;;;;;;14.15;5.75;;;;;;;9.98;100.00;100116.00;6070005;19;20009;-71
2023/10/31 08:08:56;;;;;;;17.38;6.28;;;;;;;9.96;100.00;100113.47;6071262;19;20018;-69
2023/10/31 08:10:58;;;;;;;12.73;6.32;;;;;;;10.00;100.00;100117.63;6069846;19;20026;-70
2023/10/31 08:13:06;;;;;;;;;;;;;;;10.03;100.00;100108.75;6067280;19;20006;-70
2023/10/31 08:15:13;;;;;;;13.43;6.13;;;;;;;10.14;100.00;100110.84;6075081;19;20329;-72
2023/10/31 08:17:19;;;;;;;14.88;7.03;;;;;;;10.23;100.00;100120.88;6074402;19;20010;-70
2023/10/31 08:19:24;;;;;;;17.75;6.55;;;;;;;10.23;100.00;100119.09;6071868;19;20010;-70
2023/10/31 08:21:31;;;;;;;19.05;8.20;;;;;;;10.33;100.00;100114.28;6079948;19;20526;-71
2023/10/31 08:23:37;;;;;;;18.13;8.15;;;;;;;10.38;100.00;100116.69;6078114;19;20538;-70
2023/10/31 08:25:42;;;;;;;28.63;9.43;;;;;;;10.47;100.00;100119.66;6075596;19;20010;-73
2023/10/31 08:27:47;;;;;;;21.95;9.90;;;;;;;10.61;100.00;100125.97;6077099;19;19999;-70
2023/10/31 08:29:54;;;;;;;27.38;9.70;;;;;;;10.79;100.00;100125.00;6083318;19;20010;-71
2023/10/31 08:32:00;;;;;;;26.38;10.27;;;;;;;10.84;100.00;100132.66;6082137;19;20010;-72
2023/10/31 08:34:07;;;;;;;30.25;10.75;;;;;;;10.93;100.00;100135.66;6078010;19;20010;-71
2023/10/31 08:36:12;;;;;;;23.23;9.57;;;;;;;11.06;100.00;100135.84;6073818;19;20013;-71
2023/10/31 08:38:19;;;;;;;25.20;11.20;;;;;;;11.10;100.00;100129.47;6076754;19;20010;-73
2023/10/31 08:40:34;;;;;;;29.23;11.48;;;;;;;11.17;100.00;100137.91;6076483;19;20010;-72
2023/10/31 08:42:41;;;;;;;27.88;11.45;;;;;;;11.19;100.00;100141.31;6073593;19;20017;-71
2023/10/31 08:44:46;;;;;;;33.78;10.90;;;;;;;11.24;100.00;100138.41;6078607;19;20007;-68
2023/10/31 08:46:54;;;;;;;28.98;12.07;;;;;;;11.20;100.00;100140.38;6075302;19;19998;-69
2023/10/31 08:48:59;;;;;;;27.67;11.80;;;;;;;11.24;100.00;100135.78;6077168;19;20027;-69
2023/10/31 08:51:01;;;;;;;23.88;10.10;;;;;;;11.21;100.00;100149.94;6075154;19;20391;-72
2023/10/31 08:53:07;;;;;;;18.90;7.40;;;;;;;11.20;100.00;100148.25;6073805;19;20011;-73
2023/10/31 08:55:10;;;;;;;28.73;8.25;;;;;;;11.19;100.00;100147.41;6076032;19;20878;-72
2023/10/31 08:57:14;;;;;;;19.42;7.00;;;;;;;11.29;100.00;100145.09;6070116;19;20093;-74
2023/10/31 08:59:20;;;;;;;16.50;7.75;;;;;;;11.24;100.00;100149.75;6076703;19;20027;-72
2023/10/31 09:01:25;;;;;;;18.35;6.53;;;;;;;11.29;100.00;100153.00;6069832;19;20598;-73
2023/10/31 09:03:33;;;;;;;16.15;6.50;;;;;;;11.23;100.00;100148.06;6074654;19;20486;-74
2023/10/31 09:05:39;;;;;;;14.38;6.20;;;;;;;11.20;100.00;100146.47;6073814;19;20910;-73
2023/10/31 09:07:41;;;;;;;14.30;5.22;;;;;;;11.23;100.00;100153.34;6073636;19;20002;-73
2023/10/31 09:09:46;;;;;;;18.15;5.90;;;;;;;11.33;100.00;100157.16;6074848;19;20484;-73
2023/10/31 09:11:51;;;;;;;12.40;4.60;;;;;;;11.35;100.00;100165.00;6073995;19;19998;-73
2023/10/31 09:13:56;;;;;;;14.60;4.40;;;;;;;11.32;100.00;100166.00;6076504;19;20019;-73
2023/10/31 09:16:03;;;;;;;9.95;4.05;;;;;;;11.28;100.00;100174.97;6073883;19;20010;-72
2023/10/31 09:18:08;;;;;;;13.18;4.65;;;;;;;11.26;100.00;100170.72;6072356;19;22455;-72
2023/10/31 09:20:16;;;;;;;10.10;3.50;;;;;;;11.19;100.00;100176.34;6067708;19;20348;-74
2023/10/31 09:22:21;;;;;;;11.43;4.05;;;;;;;11.10;100.00;100182.06;6072943;19;20006;-74
2023/10/31 09:24:26;;;;;;;9.50;3.45;;;;;;;11.05;100.00;100173.56;6073673;19;20007;-73
2023/10/31 09:26:31;;;;;;;7.88;3.38;;;;;;;11.01;100.00;100181.72;6076056;19;20013;-73
2023/10/31 09:28:39;;;;;;;11.40;3.55;;;;;;;10.99;100.00;100184.44;6071455;19;20017;-73
2023/10/31 09:30:45;;;;;;;11.15;3.58;;;;;;;10.93;100.00;100182.13;6074007;19;20038;-71
2023/10/31 09:32:50;;;;;;;8.20;3.63;;;;;;;10.93;100.00;100184.75;6072012;19;20014;-73
2023/10/31 09:34:52;;;;;;;14.98;3.88;;;;;;;10.92;100.00;100189.16;6073065;19;20587;-74
2023/10/31 09:37:00;;;;;;;14.73;3.80;;;;;;;10.93;100.00;100185.59;6078247;19;20357;-73
2023/10/31 09:39:06;;;;;;;10.65;3.70;;;;;;;11.04;100.00;100190.28;6075287;19;20018;-74
2023/10/31 09:41:11;;;;;;;11.90;4.15;;;;;;;11.34;100.00;100193.06;6070866;19;20014;-74
2023/10/31 09:43:16;;;;;;;10.35;4.60;;;;;;;11.57;100.00;100188.34;6072608;19;20006;-73
2023/10/31 09:45:18;;;;;;;13.00;4.55;;;;;;;11.47;100.00;100195.03;6073133;19;20657;-72